sensor_id;sensor_type;location;lat;lon;timestamp;P1;durP1;ratioP1;P2;durP2;ratioP2
22826;SDS011;11580;52.562;13.418;2023-12-20T00:02:21;4.67;;;4.27;;
22826;SDS011;11580;52.562;13.418;2023-12-20T00:04:48;3.87;;;3.57;;
22826;SDS011;11580;52.562;13.418;2023-12-20T00:07:15;3.50;;;3.30;;
22826;SDS011;11580;52.562;13.418;2023-12-20T00:09:42;3.80;;;3.60;;
22826;SDS011;11580;52.562;13.418;2023-12-20T00:12:11;3.10;;;2.90;;
22826;SDS011;11580;52.562;13.418;2023-12-20T00:14:38;3.47;;;3.27;;
22826;SDS011;11580;52.562;13.418;2023-12-20T00:17:05;3.40;;;3.20;;
22826;SDS011;11580;52.562;13.418;2023-12-20T00:19:33;3.27;;;3.07;;
22826;SDS011;11580;52.562;13.418;2023-12-20T00:22:00;4.17;;;3.87;;
22826;SDS011;11580;52.562;13.418;2023-12-20T00:24:27;3.60;;;3.40;;
22826;SDS011;11580;52.562;13.418;2023-12-20T00:26:54;3.13;;;2.93;;
22826;SDS011;11580;52.562;13.418;2023-12-20T00:29:22;3.43;;;3.23;;
22826;SDS011;11580;52.562;13.418;2023-12-20T00:31:50;3.70;;;3.50;;
22826;SDS011;11580;52.562;13.418;2023-12-20T00:34:17;3.20;;;3.00;;
22826;SDS011;11580;52.562;13.418;2023-12-20T00:36:44;3.50;;;3.30;;
22826;SDS011;11580;52.562;13.418;2023-12-20T00:39:11;3.10;;;2.90;;
22826;SDS011;11580;52.562;13.418;2023-12-20T00:41:38;3.40;;;3.20;;
22826;SDS011;11580;52.562;13.418;2023-12-20T00:44:05;3.70;;;3.50;;
22826;SDS011;11580;52.562;13.418;2023-12-20T00:46:35;3.40;;;3.20;;
22826;SDS011;11580;52.562;13.418;2023-12-20T00:49:03;3.43;;;3.23;;
22826;SDS011;11580;52.562;13.418;2023-12-20T00:51:30;3.40;;;3.20;;
22826;SDS011;11580;52.562;13.418;2023-12-20T00:53:58;4.00;;;3.70;;
22826;SDS011;11580;52.562;13.418;2023-12-20T00:56:25;3.33;;;3.13;;
22826;SDS011;11580;52.562;13.418;2023-12-20T00:58:52;3.60;;;3.40;;
22826;SDS011;11580;52.562;13.418;2023-12-20T01:01:19;4.10;;;3.90;;
22826;SDS011;11580;52.562;13.418;2023-12-20T01:03:48;3.67;;;3.20;;
22826;SDS011;11580;52.562;13.418;2023-12-20T01:06:16;3.17;;;2.97;;
22826;SDS011;11580;52.562;13.418;2023-12-20T01:08:43;3.70;;;3.43;;
22826;SDS011;11580;52.562;13.418;2023-12-20T01:11:11;4.10;;;3.80;;
22826;SDS011;11580;52.562;13.418;2023-12-20T01:13:38;3.50;;;3.20;;
22826;SDS011;11580;52.562;13.418;2023-12-20T01:16:04;3.87;;;3.57;;
22826;SDS011;11580;52.562;13.418;2023-12-20T01:18:32;4.00;;;3.70;;
22826;SDS011;11580;52.562;13.418;2023-12-20T01:21:02;3.20;;;3.00;;
22826;SDS011;11580;52.562;13.418;2023-12-20T01:23:30;3.90;;;3.60;;
22826;SDS011;11580;52.562;13.418;2023-12-20T01:25:58;4.27;;;3.97;;
22826;SDS011;11580;52.562;13.418;2023-12-20T01:28:26;3.47;;;3.27;;
22826;SDS011;11580;52.562;13.418;2023-12-20T01:30:53;3.20;;;3.00;;
22826;SDS011;11580;52.562;13.418;2023-12-20T01:33:20;3.10;;;2.90;;
22826;SDS011;11580;52.562;13.418;2023-12-20T01:35:47;3.10;;;2.90;;
22826;SDS011;11580;52.562;13.418;2023-12-20T01:38:16;3.33;;;3.13;;
22826;SDS011;11580;52.562;13.418;2023-12-20T01:40:45;3.77;;;3.20;;
22826;SDS011;11580;52.562;13.418;2023-12-20T01:43:12;2.70;;;2.60;;
22826;SDS011;11580;52.562;13.418;2023-12-20T01:45:40;3.20;;;3.00;;
22826;SDS011;11580;52.562;13.418;2023-12-20T01:48:07;3.30;;;3.00;;
22826;SDS011;11580;52.562;13.418;2023-12-20T01:50:36;2.63;;;2.47;;
22826;SDS011;11580;52.562;13.418;2023-12-20T01:53:04;2.80;;;2.60;;
22826;SDS011;11580;52.562;13.418;2023-12-20T01:55:36;3.37;;;3.17;;
22826;SDS011;11580;52.562;13.418;2023-12-20T01:58:07;3.10;;;2.90;;
22826;SDS011;11580;52.562;13.418;2023-12-20T02:00:36;2.70;;;2.50;;
22826;SDS011;11580;52.562;13.418;2023-12-20T02:03:04;2.97;;;2.77;;
22826;SDS011;11580;52.562;13.418;2023-12-20T02:05:32;2.63;;;2.47;;
22826;SDS011;11580;52.562;13.418;2023-12-20T02:08:01;3.00;;;2.80;;
22826;SDS011;11580;52.562;13.418;2023-12-20T02:10:29;2.77;;;2.50;;
22826;SDS011;11580;52.562;13.418;2023-12-20T02:12:58;3.23;;;2.93;;
22826;SDS011;11580;52.562;13.418;2023-12-20T02:15:25;2.10;;;2.00;;
22826;SDS011;11580;52.562;13.418;2023-12-20T02:17:52;2.67;;;2.47;;
22826;SDS011;11580;52.562;13.418;2023-12-20T02:20:21;4.50;;;2.63;;
22826;SDS011;11580;52.562;13.418;2023-12-20T02:22:49;2.27;;;2.10;;
22826;SDS011;11580;52.562;13.418;2023-12-20T02:25:16;2.30;;;2.03;;
22826;SDS011;11580;52.562;13.418;2023-12-20T02:27:43;1.50;;;1.40;;
22826;SDS011;11580;52.562;13.418;2023-12-20T02:30:11;2.50;;;2.30;;
22826;SDS011;11580;52.562;13.418;2023-12-20T02:32:38;1.77;;;1.60;;
22826;SDS011;11580;52.562;13.418;2023-12-20T02:35:04;1.63;;;1.53;;
22826;SDS011;11580;52.562;13.418;2023-12-20T02:37:32;3.37;;;1.83;;
22826;SDS011;11580;52.562;13.418;2023-12-20T02:40:01;2.67;;;1.93;;
22826;SDS011;11580;52.562;13.418;2023-12-20T02:42:29;1.87;;;1.70;;
22826;SDS011;11580;52.562;13.418;2023-12-20T02:44:56;1.57;;;1.47;;
22826;SDS011;11580;52.562;13.418;2023-12-20T02:47:23;3.20;;;1.33;;
22826;SDS011;11580;52.562;13.418;2023-12-20T02:49:50;1.83;;;1.60;;
22826;SDS011;11580;52.562;13.418;2023-12-20T02:52:18;1.80;;;1.70;;
22826;SDS011;11580;52.562;13.418;2023-12-20T02:54:45;1.57;;;1.47;;
22826;SDS011;11580;52.562;13.418;2023-12-20T02:57:13;1.90;;;1.80;;
22826;SDS011;11580;52.562;13.418;2023-12-20T02:59:41;2.70;;;2.17;;
22826;SDS011;11580;52.562;13.418;2023-12-20T03:02:08;2.17;;;2.07;;
22826;SDS011;11580;52.562;13.418;2023-12-20T03:04:35;2.33;;;2.07;;
22826;SDS011;11580;52.562;13.418;2023-12-20T03:07:02;1.87;;;1.77;;
22826;SDS011;11580;52.562;13.418;2023-12-20T03:09:29;1.97;;;1.77;;
22826;SDS011;11580;52.562;13.418;2023-12-20T03:11:56;2.37;;;2.17;;
22826;SDS011;11580;52.562;13.418;2023-12-20T03:14:25;2.40;;;2.20;;
22826;SDS011;11580;52.562;13.418;2023-12-20T03:16:52;2.50;;;2.00;;
22826;SDS011;11580;52.562;13.418;2023-12-20T03:19:19;1.80;;;1.70;;
22826;SDS011;11580;52.562;13.418;2023-12-20T03:21:46;2.00;;;1.80;;
22826;SDS011;11580;52.562;13.418;2023-12-20T03:24:13;1.87;;;1.63;;
22826;SDS011;11580;52.562;13.418;2023-12-20T03:26:40;1.97;;;1.53;;
22826;SDS011;11580;52.562;13.418;2023-12-20T03:29:08;2.27;;;1.90;;
22826;SDS011;11580;52.562;13.418;2023-12-20T03:31:36;1.87;;;1.77;;
22826;SDS011;11580;52.562;13.418;2023-12-20T03:34:03;3.53;;;2.23;;
22826;SDS011;11580;52.562;13.418;2023-12-20T03:36:30;2.63;;;1.77;;
22826;SDS011;11580;52.562;13.418;2023-12-20T03:38:58;4.60;;;2.37;;
22826;SDS011;11580;52.562;13.418;2023-12-20T03:41:25;4.47;;;1.80;;
22826;SDS011;11580;52.562;13.418;2023-12-20T03:43:52;1.83;;;1.60;;
22826;SDS011;11580;52.562;13.418;2023-12-20T03:46:19;2.83;;;1.67;;
22826;SDS011;11580;52.562;13.418;2023-12-20T03:48:48;1.50;;;1.40;;
22826;SDS011;11580;52.562;13.418;2023-12-20T03:51:15;3.60;;;1.70;;
22826;SDS011;11580;52.562;13.418;2023-12-20T03:53:42;1.60;;;1.50;;
22826;SDS011;11580;52.562;13.418;2023-12-20T03:56:09;1.70;;;1.50;;
22826;SDS011;11580;52.562;13.418;2023-12-20T03:58:36;4.47;;;2.30;;
22826;SDS011;11580;52.562;13.418;2023-12-20T04:01:03;4.10;;;1.77;;
22826;SDS011;11580;52.562;13.418;2023-12-20T04:03:37;3.60;;;1.80;;
22826;SDS011;11580;52.562;13.418;2023-12-20T04:06:06;3.93;;;1.97;;
22826;SDS011;11580;52.562;13.418;2023-12-20T04:08:34;2.00;;;1.80;;
22826;SDS011;11580;52.562;13.418;2023-12-20T04:11:01;2.97;;;2.03;;
22826;SDS011;11580;52.562;13.418;2023-12-20T04:13:28;3.33;;;1.80;;
22826;SDS011;11580;52.562;13.418;2023-12-20T04:15:55;2.13;;;1.87;;
22826;SDS011;11580;52.562;13.418;2023-12-20T04:18:22;5.87;;;1.80;;
22826;SDS011;11580;52.562;13.418;2023-12-20T04:20:49;1.83;;;1.73;;
22826;SDS011;11580;52.562;13.418;2023-12-20T04:23:18;2.57;;;1.60;;
22826;SDS011;11580;52.562;13.418;2023-12-20T04:25:45;3.50;;;2.10;;
22826;SDS011;11580;52.562;13.418;2023-12-20T04:28:12;3.03;;;1.97;;
22826;SDS011;11580;52.562;13.418;2023-12-20T04:30:40;2.93;;;1.77;;
22826;SDS011;11580;52.562;13.418;2023-12-20T04:33:07;2.10;;;1.70;;
22826;SDS011;11580;52.562;13.418;2023-12-20T04:35:34;1.90;;;1.80;;
22826;SDS011;11580;52.562;13.418;2023-12-20T04:38:02;6.37;;;1.70;;
22826;SDS011;11580;52.562;13.418;2023-12-20T04:40:30;3.00;;;1.90;;
22826;SDS011;11580;52.562;13.418;2023-12-20T04:42:58;2.17;;;1.70;;
22826;SDS011;11580;52.562;13.418;2023-12-20T04:45:25;2.87;;;2.00;;
22826;SDS011;11580;52.562;13.418;2023-12-20T04:47:52;4.07;;;1.93;;
22826;SDS011;11580;52.562;13.418;2023-12-20T04:50:19;2.97;;;1.63;;
22826;SDS011;11580;52.562;13.418;2023-12-20T04:52:46;3.80;;;1.77;;
22826;SDS011;11580;52.562;13.418;2023-12-20T04:55:14;2.60;;;1.70;;
22826;SDS011;11580;52.562;13.418;2023-12-20T04:57:42;4.30;;;1.90;;
22826;SDS011;11580;52.562;13.418;2023-12-20T05:00:10;2.10;;;1.90;;
22826;SDS011;11580;52.562;13.418;2023-12-20T05:02:40;3.10;;;1.87;;
22826;SDS011;11580;52.562;13.418;2023-12-20T05:05:08;2.07;;;1.87;;
22826;SDS011;11580;52.562;13.418;2023-12-20T05:07:35;2.40;;;1.80;;
22826;SDS011;11580;52.562;13.418;2023-12-20T05:10:02;3.83;;;1.77;;
22826;SDS011;11580;52.562;13.418;2023-12-20T05:12:30;4.53;;;2.40;;
22826;SDS011;11580;52.562;13.418;2023-12-20T05:14:59;2.83;;;2.03;;
22826;SDS011;11580;52.562;13.418;2023-12-20T05:17:26;4.93;;;1.97;;
22826;SDS011;11580;52.562;13.418;2023-12-20T05:19:53;4.07;;;2.30;;
22826;SDS011;11580;52.562;13.418;2023-12-20T05:22:20;2.20;;;1.60;;
22826;SDS011;11580;52.562;13.418;2023-12-20T05:24:47;2.63;;;2.37;;
22826;SDS011;11580;52.562;13.418;2023-12-20T05:27:14;2.07;;;1.87;;
22826;SDS011;11580;52.562;13.418;2023-12-20T05:29:41;3.27;;;1.70;;
22826;SDS011;11580;52.562;13.418;2023-12-20T05:32:10;4.10;;;1.97;;
22826;SDS011;11580;52.562;13.418;2023-12-20T05:34:37;2.20;;;1.83;;
22826;SDS011;11580;52.562;13.418;2023-12-20T05:37:04;2.60;;;1.70;;
22826;SDS011;11580;52.562;13.418;2023-12-20T05:39:31;6.03;;;2.37;;
22826;SDS011;11580;52.562;13.418;2023-12-20T05:41:59;9.90;;;2.50;;
22826;SDS011;11580;52.562;13.418;2023-12-20T05:44:26;4.20;;;1.90;;
22826;SDS011;11580;52.562;13.418;2023-12-20T05:46:53;4.43;;;2.10;;
22826;SDS011;11580;52.562;13.418;2023-12-20T05:49:21;2.30;;;1.77;;
22826;SDS011;11580;52.562;13.418;2023-12-20T05:51:48;3.33;;;2.00;;
22826;SDS011;11580;52.562;13.418;2023-12-20T05:54:16;4.63;;;1.90;;
22826;SDS011;11580;52.562;13.418;2023-12-20T05:56:43;4.07;;;2.10;;
22826;SDS011;11580;52.562;13.418;2023-12-20T05:59:11;3.60;;;2.07;;
22826;SDS011;11580;52.562;13.418;2023-12-20T06:01:38;3.30;;;2.30;;
22826;SDS011;11580;52.562;13.418;2023-12-20T06:04:06;6.07;;;2.53;;
22826;SDS011;11580;52.562;13.418;2023-12-20T06:06:34;2.50;;;1.87;;
22826;SDS011;11580;52.562;13.418;2023-12-20T06:09:07;4.27;;;2.30;;
22826;SDS011;11580;52.562;13.418;2023-12-20T06:11:35;3.30;;;2.73;;
22826;SDS011;11580;52.562;13.418;2023-12-20T06:14:02;3.50;;;2.40;;
22826;SDS011;11580;52.562;13.418;2023-12-20T06:16:30;3.47;;;1.80;;
22826;SDS011;11580;52.562;13.418;2023-12-20T06:18:57;3.67;;;2.30;;
22826;SDS011;11580;52.562;13.418;2023-12-20T06:21:24;4.90;;;2.03;;
22826;SDS011;11580;52.562;13.418;2023-12-20T06:23:53;2.37;;;1.87;;
22826;SDS011;11580;52.562;13.418;2023-12-20T06:26:20;4.87;;;2.10;;
22826;SDS011;11580;52.562;13.418;2023-12-20T06:28:47;4.90;;;2.20;;
22826;SDS011;11580;52.562;13.418;2023-12-20T06:31:14;3.90;;;2.40;;
22826;SDS011;11580;52.562;13.418;2023-12-20T06:33:42;5.10;;;1.93;;
22826;SDS011;11580;52.562;13.418;2023-12-20T06:36:10;3.60;;;2.53;;
22826;SDS011;11580;52.562;13.418;2023-12-20T06:38:38;2.17;;;1.97;;
22826;SDS011;11580;52.562;13.418;2023-12-20T06:41:06;4.20;;;2.40;;
22826;SDS011;11580;52.562;13.418;2023-12-20T06:43:33;4.77;;;2.50;;
22826;SDS011;11580;52.562;13.418;2023-12-20T06:46:00;2.70;;;2.10;;
22826;SDS011;11580;52.562;13.418;2023-12-20T06:48:28;3.23;;;2.40;;
22826;SDS011;11580;52.562;13.418;2023-12-20T06:50:55;5.93;;;2.20;;
22826;SDS011;11580;52.562;13.418;2023-12-20T06:53:22;3.37;;;1.77;;
22826;SDS011;11580;52.562;13.418;2023-12-20T06:55:49;4.67;;;2.50;;
22826;SDS011;11580;52.562;13.418;2023-12-20T06:58:18;3.53;;;2.20;;
22826;SDS011;11580;52.562;13.418;2023-12-20T07:00:45;4.73;;;2.33;;
22826;SDS011;11580;52.562;13.418;2023-12-20T07:03:12;5.63;;;2.20;;
22826;SDS011;11580;52.562;13.418;2023-12-20T07:05:39;5.53;;;2.40;;
22826;SDS011;11580;52.562;13.418;2023-12-20T07:08:06;3.40;;;2.27;;
22826;SDS011;11580;52.562;13.418;2023-12-20T07:10:34;4.90;;;2.40;;
22826;SDS011;11580;52.562;13.418;2023-12-20T07:13:01;3.23;;;2.10;;
22826;SDS011;11580;52.562;13.418;2023-12-20T07:15:30;3.67;;;2.23;;
22826;SDS011;11580;52.562;13.418;2023-12-20T07:17:57;2.40;;;2.10;;
22826;SDS011;11580;52.562;13.418;2023-12-20T07:20:25;6.00;;;2.27;;
22826;SDS011;11580;52.562;13.418;2023-12-20T07:22:53;4.00;;;2.57;;
22826;SDS011;11580;52.562;13.418;2023-12-20T07:25:20;2.57;;;2.37;;
22826;SDS011;11580;52.562;13.418;2023-12-20T07:27:47;4.33;;;2.30;;
22826;SDS011;11580;52.562;13.418;2023-12-20T07:30:14;2.60;;;2.40;;
22826;SDS011;11580;52.562;13.418;2023-12-20T07:32:43;4.67;;;2.87;;
22826;SDS011;11580;52.562;13.418;2023-12-20T07:35:10;3.50;;;2.23;;
22826;SDS011;11580;52.562;13.418;2023-12-20T07:37:37;3.70;;;2.23;;
22826;SDS011;11580;52.562;13.418;2023-12-20T07:40:05;4.67;;;2.60;;
22826;SDS011;11580;52.562;13.418;2023-12-20T07:42:34;3.33;;;3.03;;
22826;SDS011;11580;52.562;13.418;2023-12-20T07:45:01;3.40;;;2.27;;
22826;SDS011;11580;52.562;13.418;2023-12-20T07:47:29;2.70;;;2.50;;
22826;SDS011;11580;52.562;13.418;2023-12-20T07:49:58;4.40;;;2.90;;
22826;SDS011;11580;52.562;13.418;2023-12-20T07:52:25;4.90;;;1.93;;
22826;SDS011;11580;52.562;13.418;2023-12-20T07:54:53;4.30;;;1.97;;
22826;SDS011;11580;52.562;13.418;2023-12-20T07:57:20;4.03;;;2.50;;
22826;SDS011;11580;52.562;13.418;2023-12-20T07:59:47;4.83;;;2.23;;
22826;SDS011;11580;52.562;13.418;2023-12-20T08:02:15;3.90;;;2.13;;
22826;SDS011;11580;52.562;13.418;2023-12-20T08:04:42;5.10;;;2.60;;
22826;SDS011;11580;52.562;13.418;2023-12-20T08:07:10;3.73;;;2.60;;
22826;SDS011;11580;52.562;13.418;2023-12-20T08:09:37;6.20;;;2.00;;
22826;SDS011;11580;52.562;13.418;2023-12-20T08:12:05;2.47;;;2.20;;
22826;SDS011;11580;52.562;13.418;2023-12-20T08:14:33;5.47;;;2.40;;
22826;SDS011;11580;52.562;13.418;2023-12-20T08:17:00;4.17;;;2.50;;
22826;SDS011;11580;52.562;13.418;2023-12-20T08:19:27;3.60;;;2.40;;
22826;SDS011;11580;52.562;13.418;2023-12-20T08:21:54;3.80;;;2.20;;
22826;SDS011;11580;52.562;13.418;2023-12-20T08:24:23;5.80;;;2.30;;
22826;SDS011;11580;52.562;13.418;2023-12-20T08:26:50;4.57;;;2.43;;
22826;SDS011;11580;52.562;13.418;2023-12-20T08:29:17;3.70;;;2.17;;
22826;SDS011;11580;52.562;13.418;2023-12-20T08:31:46;5.60;;;2.30;;
22826;SDS011;11580;52.562;13.418;2023-12-20T08:34:17;3.03;;;2.20;;
22826;SDS011;11580;52.562;13.418;2023-12-20T08:36:44;4.13;;;2.20;;
22826;SDS011;11580;52.562;13.418;2023-12-20T08:39:12;8.60;;;2.67;;
22826;SDS011;11580;52.562;13.418;2023-12-20T08:41:40;2.53;;;2.33;;
22826;SDS011;11580;52.562;13.418;2023-12-20T08:44:08;2.67;;;2.10;;
22826;SDS011;11580;52.562;13.418;2023-12-20T08:46:35;3.97;;;2.00;;
22826;SDS011;11580;52.562;13.418;2023-12-20T08:49:02;4.27;;;2.53;;
22826;SDS011;11580;52.562;13.418;2023-12-20T08:51:30;4.80;;;2.37;;
22826;SDS011;11580;52.562;13.418;2023-12-20T08:53:58;6.43;;;2.40;;
22826;SDS011;11580;52.562;13.418;2023-12-20T08:56:25;4.07;;;2.43;;
22826;SDS011;11580;52.562;13.418;2023-12-20T08:58:54;3.97;;;2.33;;
22826;SDS011;11580;52.562;13.418;2023-12-20T09:01:21;5.10;;;2.60;;
22826;SDS011;11580;52.562;13.418;2023-12-20T09:03:48;6.30;;;3.30;;
22826;SDS011;11580;52.562;13.418;2023-12-20T09:06:15;3.17;;;1.97;;
22826;SDS011;11580;52.562;13.418;2023-12-20T09:08:43;5.50;;;2.70;;
22826;SDS011;11580;52.562;13.418;2023-12-20T09:11:10;5.53;;;2.00;;
22826;SDS011;11580;52.562;13.418;2023-12-20T09:13:37;3.50;;;2.20;;
22826;SDS011;11580;52.562;13.418;2023-12-20T09:16:06;4.70;;;2.30;;
22826;SDS011;11580;52.562;13.418;2023-12-20T09:18:33;5.27;;;2.10;;
22826;SDS011;11580;52.562;13.418;2023-12-20T09:21:00;3.20;;;2.30;;
22826;SDS011;11580;52.562;13.418;2023-12-20T09:23:27;4.00;;;2.00;;
22826;SDS011;11580;52.562;13.418;2023-12-20T09:25:55;4.47;;;3.13;;
22826;SDS011;11580;52.562;13.418;2023-12-20T09:28:22;4.03;;;2.17;;
22826;SDS011;11580;52.562;13.418;2023-12-20T09:30:49;4.67;;;2.60;;
22826;SDS011;11580;52.562;13.418;2023-12-20T09:33:18;3.57;;;2.03;;
22826;SDS011;11580;52.562;13.418;2023-12-20T09:35:45;5.17;;;2.23;;
22826;SDS011;11580;52.562;13.418;2023-12-20T09:38:12;5.03;;;2.30;;
22826;SDS011;11580;52.562;13.418;2023-12-20T09:40:41;4.60;;;2.27;;
22826;SDS011;11580;52.562;13.418;2023-12-20T09:43:08;4.00;;;2.37;;
22826;SDS011;11580;52.562;13.418;2023-12-20T09:45:40;6.30;;;2.03;;
22826;SDS011;11580;52.562;13.418;2023-12-20T09:48:09;3.10;;;2.00;;
22826;SDS011;11580;52.562;13.418;2023-12-20T09:50:41;6.43;;;2.60;;
22826;SDS011;11580;52.562;13.418;2023-12-20T09:53:09;2.27;;;1.83;;
22826;SDS011;11580;52.562;13.418;2023-12-20T09:55:41;2.47;;;2.23;;
22826;SDS011;11580;52.562;13.418;2023-12-20T09:58:08;3.53;;;2.20;;
22826;SDS011;11580;52.562;13.418;2023-12-20T10:00:36;2.40;;;2.20;;
22826;SDS011;11580;52.562;13.418;2023-12-20T10:03:03;3.83;;;2.43;;
22826;SDS011;11580;52.562;13.418;2023-12-20T10:05:32;2.43;;;1.87;;
22826;SDS011;11580;52.562;13.418;2023-12-20T10:08:02;3.07;;;2.27;;
22826;SDS011;11580;52.562;13.418;2023-12-20T10:10:30;3.00;;;2.03;;
22826;SDS011;11580;52.562;13.418;2023-12-20T10:13:03;3.20;;;2.17;;
22826;SDS011;11580;52.562;13.418;2023-12-20T10:15:34;8.17;;;2.97;;
22826;SDS011;11580;52.562;13.418;2023-12-20T10:18:02;3.00;;;2.17;;
22826;SDS011;11580;52.562;13.418;2023-12-20T10:20:31;2.90;;;2.27;;
22826;SDS011;11580;52.562;13.418;2023-12-20T10:22:58;3.20;;;2.60;;
22826;SDS011;11580;52.562;13.418;2023-12-20T10:25:28;4.73;;;2.30;;
22826;SDS011;11580;52.562;13.418;2023-12-20T10:28:09;5.63;;;2.93;;
22826;SDS011;11580;52.562;13.418;2023-12-20T10:30:37;5.73;;;2.77;;
22826;SDS011;11580;52.562;13.418;2023-12-20T10:33:05;2.80;;;2.53;;
22826;SDS011;11580;52.562;13.418;2023-12-20T10:35:33;3.50;;;2.27;;
22826;SDS011;11580;52.562;13.418;2023-12-20T10:38:03;4.63;;;2.87;;
22826;SDS011;11580;52.562;13.418;2023-12-20T10:40:33;3.53;;;2.30;;
22826;SDS011;11580;52.562;13.418;2023-12-20T10:43:03;2.50;;;2.30;;
22826;SDS011;11580;52.562;13.418;2023-12-20T10:45:31;2.53;;;1.90;;
22826;SDS011;11580;52.562;13.418;2023-12-20T10:48:00;3.80;;;2.60;;
22826;SDS011;11580;52.562;13.418;2023-12-20T10:50:29;6.90;;;2.90;;
22826;SDS011;11580;52.562;13.418;2023-12-20T10:52:57;5.10;;;2.63;;
22826;SDS011;11580;52.562;13.418;2023-12-20T10:55:27;6.70;;;2.90;;
22826;SDS011;11580;52.562;13.418;2023-12-20T10:57:58;4.73;;;2.40;;
22826;SDS011;11580;52.562;13.418;2023-12-20T11:00:29;4.07;;;2.10;;
22826;SDS011;11580;52.562;13.418;2023-12-20T11:03:00;4.03;;;2.50;;
22826;SDS011;11580;52.562;13.418;2023-12-20T11:05:31;2.67;;;1.90;;
22826;SDS011;11580;52.562;13.418;2023-12-20T11:08:09;5.73;;;2.63;;
22826;SDS011;11580;52.562;13.418;2023-12-20T11:10:47;4.00;;;2.40;;
22826;SDS011;11580;52.562;13.418;2023-12-20T11:13:23;2.63;;;2.20;;
22826;SDS011;11580;52.562;13.418;2023-12-20T11:15:58;5.03;;;2.23;;
22826;SDS011;11580;52.562;13.418;2023-12-20T11:18:28;4.60;;;2.50;;
22826;SDS011;11580;52.562;13.418;2023-12-20T11:20:56;3.37;;;2.47;;
22826;SDS011;11580;52.562;13.418;2023-12-20T11:23:29;4.13;;;2.33;;
22826;SDS011;11580;52.562;13.418;2023-12-20T11:26:00;4.03;;;2.60;;
22826;SDS011;11580;52.562;13.418;2023-12-20T11:28:29;3.50;;;2.63;;
22826;SDS011;11580;52.562;13.418;2023-12-20T11:30:56;5.20;;;2.80;;
22826;SDS011;11580;52.562;13.418;2023-12-20T11:33:25;5.80;;;3.23;;
22826;SDS011;11580;52.562;13.418;2023-12-20T11:35:56;4.40;;;2.50;;
22826;SDS011;11580;52.562;13.418;2023-12-20T11:38:25;6.17;;;3.50;;
22826;SDS011;11580;52.562;13.418;2023-12-20T11:40:53;5.53;;;2.63;;
22826;SDS011;11580;52.562;13.418;2023-12-20T11:43:32;5.40;;;2.93;;
22826;SDS011;11580;52.562;13.418;2023-12-20T11:46:02;3.13;;;2.20;;
22826;SDS011;11580;52.562;13.418;2023-12-20T11:48:31;6.37;;;2.90;;
22826;SDS011;11580;52.562;13.418;2023-12-20T11:51:00;4.40;;;2.60;;
22826;SDS011;11580;52.562;13.418;2023-12-20T11:53:29;5.73;;;2.60;;
22826;SDS011;11580;52.562;13.418;2023-12-20T11:55:57;3.90;;;2.73;;
22826;SDS011;11580;52.562;13.418;2023-12-20T11:58:24;4.80;;;3.10;;
22826;SDS011;11580;52.562;13.418;2023-12-20T12:00:53;5.03;;;2.57;;
22826;SDS011;11580;52.562;13.418;2023-12-20T12:03:22;5.90;;;2.43;;
22826;SDS011;11580;52.562;13.418;2023-12-20T12:05:49;4.47;;;2.50;;
22826;SDS011;11580;52.562;13.418;2023-12-20T12:08:17;3.57;;;2.40;;
22826;SDS011;11580;52.562;13.418;2023-12-20T12:10:44;3.10;;;2.43;;
22826;SDS011;11580;52.562;13.418;2023-12-20T12:13:12;3.77;;;2.20;;
22826;SDS011;11580;52.562;13.418;2023-12-20T12:15:40;2.50;;;2.30;;
22826;SDS011;11580;52.562;13.418;2023-12-20T12:18:11;4.77;;;2.33;;
22826;SDS011;11580;52.562;13.418;2023-12-20T12:20:42;3.37;;;2.60;;
22826;SDS011;11580;52.562;13.418;2023-12-20T12:23:09;3.40;;;2.30;;
22826;SDS011;11580;52.562;13.418;2023-12-20T12:25:36;4.20;;;2.00;;
22826;SDS011;11580;52.562;13.418;2023-12-20T12:28:04;4.10;;;2.50;;
22826;SDS011;11580;52.562;13.418;2023-12-20T12:30:32;3.57;;;2.33;;
22826;SDS011;11580;52.562;13.418;2023-12-20T12:32:59;4.27;;;2.30;;
22826;SDS011;11580;52.562;13.418;2023-12-20T12:35:28;6.90;;;2.50;;
22826;SDS011;11580;52.562;13.418;2023-12-20T12:37:55;2.57;;;2.03;;
22826;SDS011;11580;52.562;13.418;2023-12-20T12:40:25;6.23;;;2.90;;
22826;SDS011;11580;52.562;13.418;2023-12-20T12:42:52;4.23;;;2.33;;
22826;SDS011;11580;52.562;13.418;2023-12-20T12:45:19;4.70;;;2.80;;
22826;SDS011;11580;52.562;13.418;2023-12-20T12:47:47;5.77;;;2.30;;
22826;SDS011;11580;52.562;13.418;2023-12-20T12:50:14;2.80;;;2.13;;
22826;SDS011;11580;52.562;13.418;2023-12-20T12:52:43;2.60;;;2.17;;
22826;SDS011;11580;52.562;13.418;2023-12-20T12:55:10;2.50;;;2.30;;
22826;SDS011;11580;52.562;13.418;2023-12-20T12:57:37;5.03;;;2.50;;
22826;SDS011;11580;52.562;13.418;2023-12-20T13:00:05;4.00;;;2.70;;
22826;SDS011;11580;52.562;13.418;2023-12-20T13:02:34;3.70;;;2.33;;
22826;SDS011;11580;52.562;13.418;2023-12-20T13:05:03;3.03;;;2.67;;
22826;SDS011;11580;52.562;13.418;2023-12-20T13:07:31;5.03;;;2.23;;
22826;SDS011;11580;52.562;13.418;2023-12-20T13:09:59;3.97;;;2.67;;
22826;SDS011;11580;52.562;13.418;2023-12-20T13:12:26;3.00;;;2.40;;
22826;SDS011;11580;52.562;13.418;2023-12-20T13:14:54;3.10;;;2.37;;
22826;SDS011;11580;52.562;13.418;2023-12-20T13:17:21;3.40;;;3.00;;
22826;SDS011;11580;52.562;13.418;2023-12-20T13:19:49;4.80;;;3.20;;
22826;SDS011;11580;52.562;13.418;2023-12-20T13:22:16;5.80;;;2.97;;
22826;SDS011;11580;52.562;13.418;2023-12-20T13:24:43;2.77;;;2.50;;
22826;SDS011;11580;52.562;13.418;2023-12-20T13:27:12;1.87;;;1.70;;
22826;SDS011;11580;52.562;13.418;2023-12-20T13:29:39;3.37;;;2.07;;
22826;SDS011;11580;52.562;13.418;2023-12-20T13:32:06;2.10;;;1.90;;
22826;SDS011;11580;52.562;13.418;2023-12-20T13:34:34;2.30;;;1.23;;
22826;SDS011;11580;52.562;13.418;2023-12-20T13:37:01;2.20;;;1.27;;
22826;SDS011;11580;52.562;13.418;2023-12-20T13:39:29;1.00;;;0.87;;
22826;SDS011;11580;52.562;13.418;2023-12-20T13:41:57;2.50;;;1.10;;
22826;SDS011;11580;52.562;13.418;2023-12-20T13:44:25;1.70;;;1.00;;
22826;SDS011;11580;52.562;13.418;2023-12-20T13:46:52;1.53;;;1.10;;
22826;SDS011;11580;52.562;13.418;2023-12-20T13:49:19;1.40;;;1.30;;
22826;SDS011;11580;52.562;13.418;2023-12-20T13:51:50;1.20;;;1.00;;
22826;SDS011;11580;52.562;13.418;2023-12-20T13:54:19;1.47;;;1.07;;
22826;SDS011;11580;52.562;13.418;2023-12-20T13:56:47;2.50;;;1.27;;
22826;SDS011;11580;52.562;13.418;2023-12-20T13:59:14;1.70;;;1.60;;
22826;SDS011;11580;52.562;13.418;2023-12-20T14:01:43;2.00;;;1.20;;
22826;SDS011;11580;52.562;13.418;2023-12-20T14:04:10;1.40;;;1.30;;
22826;SDS011;11580;52.562;13.418;2023-12-20T14:06:37;1.00;;;0.90;;
22826;SDS011;11580;52.562;13.418;2023-12-20T14:09:05;1.20;;;1.00;;
22826;SDS011;11580;52.562;13.418;2023-12-20T14:11:33;0.83;;;0.83;;
22826;SDS011;11580;52.562;13.418;2023-12-20T14:14:06;1.27;;;1.17;;
22826;SDS011;11580;52.562;13.418;2023-12-20T14:16:33;2.00;;;1.40;;
22826;SDS011;11580;52.562;13.418;2023-12-20T14:19:02;0.77;;;0.77;;
22826;SDS011;11580;52.562;13.418;2023-12-20T14:21:32;1.30;;;1.20;;
22826;SDS011;11580;52.562;13.418;2023-12-20T14:23:59;1.53;;;0.90;;
22826;SDS011;11580;52.562;13.418;2023-12-20T14:26:26;1.17;;;1.07;;
22826;SDS011;11580;52.562;13.418;2023-12-20T14:28:54;1.23;;;1.13;;
22826;SDS011;11580;52.562;13.418;2023-12-20T14:31:21;1.30;;;1.13;;
22826;SDS011;11580;52.562;13.418;2023-12-20T14:33:49;1.50;;;1.30;;
22826;SDS011;11580;52.562;13.418;2023-12-20T14:36:19;1.93;;;1.30;;
22826;SDS011;11580;52.562;13.418;2023-12-20T14:38:48;0.87;;;0.80;;